sensor_id;sensor_type;location;lat;lon;timestamp;pressure;altitude;pressure_sealevel;temperature;humidity
57628;BME280;43451;49.060;10.616;2022-10-31T00:00:30;97241.41;;;8.99;100.00
57628;BME280;43451;49.060;10.616;2022-10-31T00:02:56;97236.00;;;8.99;100.00
57628;BME280;43451;49.060;10.616;2022-10-31T00:05:21;97248.34;;;8.97;100.00
57628;BME280;43451;49.060;10.616;2022-10-31T00:07:46;97247.63;;;9.00;100.00
57628;BME280;43451;49.060;10.616;2022-10-31T00:10:12;97239.81;;;8.95;100.00
57628;BME280;43451;49.060;10.616;2022-10-31T00:12:37;97242.53;;;8.95;100.00
57628;BME280;43451;49.060;10.616;2022-10-31T00:15:03;97239.72;;;8.88;100.00
57628;BME280;43451;49.060;10.616;2022-10-31T00:17:28;97235.75;;;8.81;100.00
57628;BME280;43451;49.060;10.616;2022-10-31T00:19:54;97242.66;;;8.75;100.00
57628;BME280;43451;49.060;10.616;2022-10-31T00:22:19;97245.38;;;8.75;100.00
57628;BME280;43451;49.060;10.616;2022-10-31T00:24:45;97244.34;;;8.57;100.00
57628;BME280;43451;49.060;10.616;2022-10-31T00:27:10;97239.22;;;8.52;100.00
57628;BME280;43451;49.060;10.616;2022-10-31T00:29:36;97253.47;;;8.49;100.00
57628;BME280;43451;49.060;10.616;2022-10-31T00:32:01;97247.66;;;8.47;100.00
57628;BME280;43451;49.060;10.616;2022-10-31T00:34:26;97253.88;;;8.47;100.00
57628;BME280;43451;49.060;10.616;2022-10-31T00:36:52;97243.03;;;8.47;100.00
57628;BME280;43451;49.060;10.616;2022-10-31T00:39:17;97249.22;;;8.48;100.00
57628;BME280;43451;49.060;10.616;2022-10-31T00:41:43;97252.22;;;8.43;100.00
57628;BME280;43451;49.060;10.616;2022-10-31T00:44:08;97250.72;;;8.45;100.00
57628;BME280;43451;49.060;10.616;2022-10-31T00:46:33;97252.66;;;8.45;100.00
57628;BME280;43451;49.060;10.616;2022-10-31T00:48:59;97258.59;;;8.54;100.00
57628;BME280;43451;49.060;10.616;2022-10-31T00:51:24;97256.09;;;8.42;100.00
57628;BME280;43451;49.060;10.616;2022-10-31T00:53:50;97254.44;;;8.37;100.00
57628;BME280;43451;49.060;10.616;2022-10-31T00:56:15;97255.03;;;8.50;100.00
57628;BME280;43451;49.060;10.616;2022-10-31T00:58:41;97256.66;;;8.54;100.00
57628;BME280;43451;49.060;10.616;2022-10-31T01:01:06;97256.81;;;8.39;100.00
57628;BME280;43451;49.060;10.616;2022-10-31T01:03:32;97259.69;;;8.26;100.00
57628;BME280;43451;49.060;10.616;2022-10-31T01:08:29;97259.97;;;8.21;100.00
57628;BME280;43451;49.060;10.616;2022-10-31T01:11:08;97257.28;;;8.21;100.00
57628;BME280;43451;49.060;10.616;2022-10-31T01:13:35;97258.84;;;8.22;100.00
57628;BME280;43451;49.060;10.616;2022-10-31T01:16:02;97257.28;;;8.21;100.00
57628;BME280;43451;49.060;10.616;2022-10-31T01:18:29;97253.25;;;8.11;100.00
57628;BME280;43451;49.060;10.616;2022-10-31T01:21:08;97247.78;;;8.08;100.00
57628;BME280;43451;49.060;10.616;2022-10-31T01:23:35;97241.59;;;8.07;100.00
57628;BME280;43451;49.060;10.616;2022-10-31T01:26:02;97244.69;;;8.06;100.00
57628;BME280;43451;49.060;10.616;2022-10-31T01:28:27;97244.25;;;8.04;100.00
57628;BME280;43451;49.060;10.616;2022-10-31T01:30:53;97247.63;;;7.97;100.00
57628;BME280;43451;49.060;10.616;2022-10-31T01:33:18;97252.97;;;7.94;100.00
57628;BME280;43451;49.060;10.616;2022-10-31T01:35:44;97247.84;;;7.88;100.00
57628;BME280;43451;49.060;10.616;2022-10-31T01:38:09;97246.28;;;7.87;100.00
57628;BME280;43451;49.060;10.616;2022-10-31T01:40:34;97239.00;;;7.91;100.00
57628;BME280;43451;49.060;10.616;2022-10-31T01:43:00;97241.28;;;7.89;100.00
57628;BME280;43451;49.060;10.616;2022-10-31T01:45:25;97241.19;;;7.82;100.00
57628;BME280;43451;49.060;10.616;2022-10-31T01:47:51;97246.97;;;7.81;100.00
57628;BME280;43451;49.060;10.616;2022-10-31T01:50:33;97238.91;;;7.84;100.00
57628;BME280;43451;49.060;10.616;2022-10-31T01:53:01;97242.75;;;7.83;100.00
57628;BME280;43451;49.060;10.616;2022-10-31T01:55:30;97243.88;;;7.82;100.00
57628;BME280;43451;49.060;10.616;2022-10-31T01:58:02;97238.06;;;7.80;100.00
57628;BME280;43451;49.060;10.616;2022-10-31T02:00:30;97246.53;;;7.79;100.00
57628;BME280;43451;49.060;10.616;2022-10-31T02:02:56;97239.25;;;7.83;100.00
57628;BME280;43451;49.060;10.616;2022-10-31T02:05:24;97247.38;;;7.83;100.00
57628;BME280;43451;49.060;10.616;2022-10-31T02:10:21;97243.34;;;7.73;100.00
57628;BME280;43451;49.060;10.616;2022-10-31T02:12:55;97247.06;;;7.65;100.00
57628;BME280;43451;49.060;10.616;2022-10-31T02:15:22;97244.00;;;7.66;100.00
57628;BME280;43451;49.060;10.616;2022-10-31T02:17:48;97237.69;;;7.59;100.00
57628;BME280;43451;49.060;10.616;2022-10-31T02:20:22;97239.50;;;7.55;100.00
57628;BME280;43451;49.060;10.616;2022-10-31T02:25:56;97234.31;;;7.65;100.00
57628;BME280;43451;49.060;10.616;2022-10-31T02:31:36;97235.69;;;7.56;100.00
57628;BME280;43451;49.060;10.616;2022-10-31T02:34:21;97245.13;;;7.65;100.00
57628;BME280;43451;49.060;10.616;2022-10-31T02:37:09;97232.28;;;7.59;100.00
57628;BME280;43451;49.060;10.616;2022-10-31T02:39:55;97234.09;;;7.55;100.00
57628;BME280;43451;49.060;10.616;2022-10-31T02:45:29;97234.53;;;7.57;100.00
57628;BME280;43451;49.060;10.616;2022-10-31T02:48:01;97234.19;;;7.58;100.00
57628;BME280;43451;49.060;10.616;2022-10-31T02:50:31;97240.72;;;7.57;100.00
57628;BME280;43451;49.060;10.616;2022-10-31T02:52:58;97234.19;;;7.58;100.00
57628;BME280;43451;49.060;10.616;2022-10-31T02:57:55;97248.00;;;7.53;100.00
57628;BME280;43451;49.060;10.616;2022-10-31T03:00:22;97231.78;;;7.53;100.00
57628;BME280;43451;49.060;10.616;2022-10-31T03:03:02;97236.81;;;7.55;100.00
57628;BME280;43451;49.060;10.616;2022-10-31T03:08:30;97235.56;;;7.49;100.00
57628;BME280;43451;49.060;10.616;2022-10-31T03:11:07;97242.09;;;7.48;100.00
57628;BME280;43451;49.060;10.616;2022-10-31T03:16:16;97232.38;;;7.43;100.00
57628;BME280;43451;49.060;10.616;2022-10-31T03:18:53;97230.16;;;7.49;100.00
57628;BME280;43451;49.060;10.616;2022-10-31T03:21:22;97223.59;;;7.50;100.00
57628;BME280;43451;49.060;10.616;2022-10-31T03:23:53;97224.03;;;7.52;100.00
57628;BME280;43451;49.060;10.616;2022-10-31T03:26:21;97221.56;;;7.43;100.00
57628;BME280;43451;49.060;10.616;2022-10-31T03:28:58;97224.97;;;7.40;100.00
57628;BME280;43451;49.060;10.616;2022-10-31T03:31:28;97225.56;;;7.30;100.00
57628;BME280;43451;49.060;10.616;2022-10-31T03:33:58;97225.47;;;7.26;100.00
57628;BME280;43451;49.060;10.616;2022-10-31T03:36:26;97228.91;;;7.23;100.00
57628;BME280;43451;49.060;10.616;2022-10-31T03:38:54;97229.31;;;7.25;100.00
57628;BME280;43451;49.060;10.616;2022-10-31T03:41:24;97233.16;;;7.24;100.00
57628;BME280;43451;49.060;10.616;2022-10-31T03:43:58;97231.44;;;7.16;100.00
57628;BME280;43451;49.060;10.616;2022-10-31T03:46:26;97227.19;;;7.15;100.00
57628;BME280;43451;49.060;10.616;2022-10-31T03:48:52;97233.03;;;7.17;100.00
57628;BME280;43451;49.060;10.616;2022-10-31T03:54:21;97225.19;;;7.12;100.00
57628;BME280;43451;49.060;10.616;2022-10-31T03:59:47;97228.25;;;7.10;100.00
57628;BME280;43451;49.060;10.616;2022-10-31T04:02:18;97227.91;;;7.12;100.00
57628;BME280;43451;49.060;10.616;2022-10-31T04:04:46;97225.34;;;7.19;100.00
57628;BME280;43451;49.060;10.616;2022-10-31T04:07:14;97229.25;;;7.21;100.00
57628;BME280;43451;49.060;10.616;2022-10-31T04:09:43;97230.03;;;7.22;100.00
57628;BME280;43451;49.060;10.616;2022-10-31T04:12:12;97231.19;;;7.21;100.00
57628;BME280;43451;49.060;10.616;2022-10-31T04:14:41;97235.44;;;7.22;100.00
57628;BME280;43451;49.060;10.616;2022-10-31T04:17:11;97234.59;;;7.18;100.00
57628;BME280;43451;49.060;10.616;2022-10-31T04:19:38;97239.22;;;7.17;100.00
57628;BME280;43451;49.060;10.616;2022-10-31T04:22:03;97236.16;;;7.19;100.00
57628;BME280;43451;49.060;10.616;2022-10-31T04:24:29;97235.88;;;7.24;100.00
57628;BME280;43451;49.060;10.616;2022-10-31T04:26:54;97233.94;;;7.25;100.00
57628;BME280;43451;49.060;10.616;2022-10-31T04:29:20;97238.50;;;7.20;100.00
57628;BME280;43451;49.060;10.616;2022-10-31T04:31:45;97236.91;;;7.19;100.00
57628;BME280;43451;49.060;10.616;2022-10-31T04:34:10;97237.63;;;7.16;100.00
57628;BME280;43451;49.060;10.616;2022-10-31T04:36:36;97236.28;;;7.26;100.00
57628;BME280;43451;49.060;10.616;2022-10-31T04:39:01;97231.63;;;7.23;100.00
57628;BME280;43451;49.060;10.616;2022-10-31T04:41:27;97234.72;;;7.25;100.00
57628;BME280;43451;49.060;10.616;2022-10-31T04:43:52;97234.00;;;7.28;100.00
57628;BME280;43451;49.060;10.616;2022-10-31T04:46:18;97235.38;;;7.18;100.00
57628;BME280;43451;49.060;10.616;2022-10-31T04:48:43;97231.44;;;7.16;100.00
57628;BME280;43451;49.060;10.616;2022-10-31T04:51:09;97235.09;;;7.24;100.00
57628;BME280;43451;49.060;10.616;2022-10-31T04:53:34;97237.84;;;7.27;100.00
57628;BME280;43451;49.060;10.616;2022-10-31T04:56:00;97225.41;;;7.22;100.00
57628;BME280;43451;49.060;10.616;2022-10-31T04:58:26;97223.06;;;7.21;100.00
57628;BME280;43451;49.060;10.616;2022-10-31T05:00:53;97222.34;;;7.24;100.00
57628;BME280;43451;49.060;10.616;2022-10-31T05:03:19;97223.72;;;7.14;100.00
57628;BME280;43451;49.060;10.616;2022-10-31T05:05:44;97225.19;;;7.12;100.00
57628;BME280;43451;49.060;10.616;2022-10-31T05:08:10;97221.59;;;7.04;100.00
57628;BME280;43451;49.060;10.616;2022-10-31T05:10:35;97219.78;;;7.12;100.00
57628;BME280;43451;49.060;10.616;2022-10-31T05:13:02;97222.94;;;7.14;100.00
57628;BME280;43451;49.060;10.616;2022-10-31T05:15:28;97219.09;;;7.15;100.00
57628;BME280;43451;49.060;10.616;2022-10-31T05:17:54;97219.88;;;7.15;100.00
57628;BME280;43451;49.060;10.616;2022-10-31T05:20:23;97222.06;;;7.10;100.00
57628;BME280;43451;49.060;10.616;2022-10-31T05:22:50;97213.38;;;7.01;100.00
57628;BME280;43451;49.060;10.616;2022-10-31T05:25:17;97209.84;;;6.96;100.00
57628;BME280;43451;49.060;10.616;2022-10-31T05:27:45;97214.81;;;6.94;100.00
57628;BME280;43451;49.060;10.616;2022-10-31T05:30:12;97214.03;;;6.94;100.00
57628;BME280;43451;49.060;10.616;2022-10-31T05:32:44;97207.13;;;6.96;100.00
57628;BME280;43451;49.060;10.616;2022-10-31T05:35:12;97201.88;;;7.04;100.00
57628;BME280;43451;49.060;10.616;2022-10-31T05:37:38;97213.13;;;7.06;100.00
57628;BME280;43451;49.060;10.616;2022-10-31T05:40:04;97209.69;;;7.09;100.00
57628;BME280;43451;49.060;10.616;2022-10-31T05:42:30;97202.75;;;7.08;100.00
57628;BME280;43451;49.060;10.616;2022-10-31T05:44:56;97200.31;;;7.03;100.00
57628;BME280;43451;49.060;10.616;2022-10-31T05:47:22;97197.28;;;7.04;100.00
57628;BME280;43451;49.060;10.616;2022-10-31T05:49:47;97201.88;;;7.04;100.00
57628;BME280;43451;49.060;10.616;2022-10-31T05:52:13;97201.03;;;7.00;100.00
57628;BME280;43451;49.060;10.616;2022-10-31T05:54:38;97206.69;;;6.94;100.00
57628;BME280;43451;49.060;10.616;2022-10-31T05:57:04;97203.28;;;6.97;100.00
57628;BME280;43451;49.060;10.616;2022-10-31T05:59:29;97207.28;;;7.04;100.00
57628;BME280;43451;49.060;10.616;2022-10-31T06:01:55;97199.59;;;7.06;100.00
57628;BME280;43451;49.060;10.616;2022-10-31T06:04:20;97205.72;;;7.03;100.00
57628;BME280;43451;49.060;10.616;2022-10-31T06:06:45;97206.88;;;7.02;100.00
57628;BME280;43451;49.060;10.616;2022-10-31T06:09:12;97209.56;;;7.02;100.00
57628;BME280;43451;49.060;10.616;2022-10-31T06:11:37;97217.53;;;7.14;100.00
57628;BME280;43451;49.060;10.616;2022-10-31T06:14:03;97211.47;;;7.20;100.00
57628;BME280;43451;49.060;10.616;2022-10-31T06:16:29;97212.69;;;7.04;100.00
57628;BME280;43451;49.060;10.616;2022-10-31T06:18:55;97217.22;;;7.19;100.00
57628;BME280;43451;49.060;10.616;2022-10-31T06:21:20;97212.19;;;7.17;100.00
57628;BME280;43451;49.060;10.616;2022-10-31T06:23:45;97214.91;;;6.98;100.00
57628;BME280;43451;49.060;10.616;2022-10-31T06:26:11;97211.00;;;6.95;100.00
57628;BME280;43451;49.060;10.616;2022-10-31T06:28:36;97218.72;;;6.97;100.00
57628;BME280;43451;49.060;10.616;2022-10-31T06:31:02;97209.13;;;7.00;100.00
57628;BME280;43451;49.060;10.616;2022-10-31T06:33:27;97209.63;;;7.05;100.00
57628;BME280;43451;49.060;10.616;2022-10-31T06:35:53;97209.19;;;7.03;100.00
57628;BME280;43451;49.060;10.616;2022-10-31T06:38:18;97209.91;;;7.00;100.00
57628;BME280;43451;49.060;10.616;2022-10-31T06:40:43;97206.88;;;7.02;100.00
57628;BME280;43451;49.060;10.616;2022-10-31T06:43:09;97212.47;;;7.12;100.00
57628;BME280;43451;49.060;10.616;2022-10-31T06:45:36;97206.78;;;7.17;100.00
57628;BME280;43451;49.060;10.616;2022-10-31T06:48:02;97221.34;;;7.13;100.00
57628;BME280;43451;49.060;10.616;2022-10-31T06:50:28;97218.31;;;7.14;100.00
57628;BME280;43451;49.060;10.616;2022-10-31T06:52:54;97224.75;;;7.10;100.00
57628;BME280;43451;49.060;10.616;2022-10-31T06:55:21;97214.97;;;7.02;100.00
57628;BME280;43451;49.060;10.616;2022-10-31T06:58:00;97220.31;;;7.17;100.00
57628;BME280;43451;49.060;10.616;2022-10-31T07:00:27;97211.47;;;7.20;100.00
57628;BME280;43451;49.060;10.616;2022-10-31T07:02:57;97214.31;;;7.28;100.00
57628;BME280;43451;49.060;10.616;2022-10-31T07:05:24;97204.41;;;7.35;100.00
57628;BME280;43451;49.060;10.616;2022-10-31T07:07:58;97216.03;;;7.36;100.00
57628;BME280;43451;49.060;10.616;2022-10-31T07:10:25;97222.28;;;7.40;100.00
57628;BME280;43451;49.060;10.616;2022-10-31T07:12:56;97224.25;;;7.43;100.00
57628;BME280;43451;49.060;10.616;2022-10-31T07:15:26;97222.81;;;7.49;100.00
57628;BME280;43451;49.060;10.616;2022-10-31T07:17:52;97218.31;;;7.57;100.00
57628;BME280;43451;49.060;10.616;2022-10-31T07:20:18;97213.03;;;7.64;100.00
57628;BME280;43451;49.060;10.616;2022-10-31T07:22:43;97214.66;;;7.68;100.00
57628;BME280;43451;49.060;10.616;2022-10-31T07:25:09;97215.56;;;7.76;100.00
57628;BME280;43451;49.060;10.616;2022-10-31T07:27:38;97218.75;;;7.82;100.00
57628;BME280;43451;49.060;10.616;2022-10-31T07:30:08;97217.31;;;7.88;100.00
57628;BME280;43451;49.060;10.616;2022-10-31T07:32:40;97222.72;;;7.88;100.00
57628;BME280;43451;49.060;10.616;2022-10-31T07:35:12;97217.38;;;7.91;100.00
57628;BME280;43451;49.060;10.616;2022-10-31T07:37:38;97222.06;;;7.95;100.00
57628;BME280;43451;49.060;10.616;2022-10-31T07:40:05;97214.91;;;8.06;100.00
57628;BME280;43451;49.060;10.616;2022-10-31T07:42:45;97207.69;;;8.13;100.00
57628;BME280;43451;49.060;10.616;2022-10-31T07:45:12;97214.41;;;8.23;100.00
57628;BME280;43451;49.060;10.616;2022-10-31T07:47:45;97221.91;;;8.33;100.00
57628;BME280;43451;49.060;10.616;2022-10-31T07:50:14;97215.91;;;8.44;100.00
57628;BME280;43451;49.060;10.616;2022-10-31T07:52:39;97214.50;;;8.53;100.00
57628;BME280;43451;49.060;10.616;2022-10-31T07:55:05;97216.19;;;8.65;100.00
57628;BME280;43451;49.060;10.616;2022-10-31T07:57:31;97214.81;;;8.78;100.00
57628;BME280;43451;49.060;10.616;2022-10-31T07:59:57;97211.09;;;8.90;100.00
57628;BME280;43451;49.060;10.616;2022-10-31T08:02:22;97208.16;;;9.02;100.00
57628;BME280;43451;49.060;10.616;2022-10-31T08:04:49;97210.63;;;9.15;100.00
57628;BME280;43451;49.060;10.616;2022-10-31T08:07:14;97204.19;;;9.26;100.00
57628;BME280;43451;49.060;10.616;2022-10-31T08:09:40;97209.38;;;9.39;100.00
57628;BME280;43451;49.060;10.616;2022-10-31T08:12:05;97211.81;;;9.54;100.00
57628;BME280;43451;49.060;10.616;2022-10-31T08:14:31;97203.81;;;9.65;100.00
57628;BME280;43451;49.060;10.616;2022-10-31T08:16:56;97204.38;;;9.85;100.00
57628;BME280;43451;49.060;10.616;2022-10-31T08:19:22;97195.94;;;9.94;100.00
57628;BME280;43451;49.060;10.616;2022-10-31T08:21:51;97203.00;;;10.06;100.00
57628;BME280;43451;49.060;10.616;2022-10-31T08:24:17;97200.34;;;10.13;100.00
57628;BME280;43451;49.060;10.616;2022-10-31T08:26:42;97202.41;;;10.27;100.00
57628;BME280;43451;49.060;10.616;2022-10-31T08:29:08;97203.66;;;10.40;100.00
57628;BME280;43451;49.060;10.616;2022-10-31T08:31:34;97201.03;;;10.54;100.00
57628;BME280;43451;49.060;10.616;2022-10-31T08:33:59;97206.53;;;10.68;100.00
57628;BME280;43451;49.060;10.616;2022-10-31T08:36:25;97204.28;;;10.78;100.00
57628;BME280;43451;49.060;10.616;2022-10-31T08:38:50;97196.56;;;10.87;100.00
57628;BME280;43451;49.060;10.616;2022-10-31T08:41:16;97196.66;;;11.12;100.00
57628;BME280;43451;49.060;10.616;2022-10-31T08:43:41;97194.34;;;11.18;100.00
57628;BME280;43451;49.060;10.616;2022-10-31T08:46:06;97193.59;;;11.28;100.00
57628;BME280;43451;49.060;10.616;2022-10-31T08:48:32;97190.53;;;11.47;100.00
57628;BME280;43451;49.060;10.616;2022-10-31T08:50:59;97193.69;;;11.56;100.00
57628;BME280;43451;49.060;10.616;2022-10-31T08:53:24;97178.94;;;11.65;100.00
57628;BME280;43451;49.060;10.616;2022-10-31T08:55:50;97180.47;;;11.76;100.00
57628;BME280;43451;49.060;10.616;2022-10-31T08:58:17;97179.75;;;11.87;100.00
57628;BME280;43451;49.060;10.616;2022-10-31T09:00:44;97179.75;;;11.97;100.00
57628;BME280;43451;49.060;10.616;2022-10-31T09:03:15;97175.09;;;12.12;100.00
57628;BME280;43451;49.060;10.616;2022-10-31T09:05:41;97172.72;;;12.32;100.00
57628;BME280;43451;49.060;10.616;2022-10-31T09:08:07;97159.47;;;12.48;100.00
57628;BME280;43451;49.060;10.616;2022-10-31T09:10:34;97158.69;;;12.48;100.00
57628;BME280;43451;49.060;10.616;2022-10-31T09:13:11;97159.44;;;12.59;100.00
57628;BME280;43451;49.060;10.616;2022-10-31T09:15:38;97164.09;;;12.69;100.00
57628;BME280;43451;49.060;10.616;2022-10-31T09:18:08;97159.75;;;12.83;100.00
57628;BME280;43451;49.060;10.616;2022-10-31T09:20:35;97166.75;;;12.91;100.00
57628;BME280;43451;49.060;10.616;2022-10-31T09:23:06;97157.69;;;13.08;100.00
57628;BME280;43451;49.060;10.616;2022-10-31T09:25:34;97153.75;;;13.20;100.00
57628;BME280;43451;49.060;10.616;2022-10-31T09:28:01;97161.50;;;13.32;100.00
57628;BME280;43451;49.060;10.616;2022-10-31T09:30:29;97156.75;;;13.43;100.00
57628;BME280;43451;49.060;10.616;2022-10-31T09:33:06;97160.19;;;13.58;100.00
57628;BME280;43451;49.060;10.616;2022-10-31T09:35:32;97151.91;;;13.69;100.00
57628;BME280;43451;49.060;10.616;2022-10-31T09:38:04;97156.53;;;13.76;100.00
57628;BME280;43451;49.060;10.616;2022-10-31T09:40:46;97152.97;;;13.82;100.00
57628;BME280;43451;49.060;10.616;2022-10-31T09:49:21;97143.69;;;14.17;100.00
57628;BME280;43451;49.060;10.616;2022-10-31T09:52:21;97146.13;;;14.12;100.00
57628;BME280;43451;49.060;10.616;2022-10-31T09:54:53;97151.59;;;14.12;100.00
57628;BME280;43451;49.060;10.616;2022-10-31T09:57:28;97140.19;;;14.17;100.00
57628;BME280;43451;49.060;10.616;2022-10-31T09:59:55;97144.09;;;14.20;100.00
57628;BME280;43451;49.060;10.616;2022-10-31T10:02:33;97140.50;;;14.26;100.00
57628;BME280;43451;49.060;10.616;2022-10-31T10:05:05;97143.25;;;14.26;100.00
57628;BME280;43451;49.060;10.616;2022-10-31T10:07:42;97141.56;;;14.36;100.00
57628;BME280;43451;49.060;10.616;2022-10-31T10:13:24;97143.41;;;14.50;100.00
57628;BME280;43451;49.060;10.616;2022-10-31T10:29:49;97124.78;;;15.06;100.00
57628;BME280;43451;49.060;10.616;2022-10-31T10:32:24;97127.81;;;15.15;100.00
57628;BME280;43451;49.060;10.616;2022-10-31T10:34:53;97130.69;;;15.31;100.00
57628;BME280;43451;49.060;10.616;2022-10-31T10:39:53;97115.63;;;15.47;100.00
57628;BME280;43451;49.060;10.616;2022-10-31T10:42:22;97121.66;;;15.62;100.00
57628;BME280;43451;49.060;10.616;2022-10-31T10:45:19;97117.69;;;15.66;100.00
57628;BME280;43451;49.060;10.616;2022-10-31T10:48:24;97108.97;;;15.75;100.00
57628;BME280;43451;49.060;10.616;2022-10-31T10:50:52;97106.03;;;15.86;100.00
57628;BME280;43451;49.060;10.616;2022-10-31T10:58:44;97085.53;;;16.17;100.00
57628;BME280;43451;49.060;10.616;2022-10-31T11:01:15;97086.31;;;16.18;100.00
57628;BME280;43451;49.060;10.616;2022-10-31T11:03:41;97077.06;;;16.32;100.00
57628;BME280;43451;49.060;10.616;2022-10-31T11:06:21;97082.06;;;16.37;100.00
57628;BME280;43451;49.060;10.616;2022-10-31T11:08:51;97075.00;;;16.36;100.00
57628;BME280;43451;49.060;10.616;2022-10-31T11:13:44;97068.28;;;16.60;100.00
57628;BME280;43451;49.060;10.616;2022-10-31T11:18:51;97061.38;;;16.52;100.00
57628;BME280;43451;49.060;10.616;2022-10-31T11:21:28;97057.88;;;16.71;100.00
57628;BME280;43451;49.060;10.616;2022-10-31T11:24:04;97057.75;;;16.79;100.00
57628;BME280;43451;49.060;10.616;2022-10-31T11:26:39;97065.22;;;16.78;100.00
57628;BME280;43451;49.060;10.616;2022-10-31T11:29:05;97061.28;;;16.96;100.00
57628;BME280;43451;49.060;10.616;2022-10-31T11:31:36;97057.91;;;17.08;100.00
57628;BME280;43451;49.060;10.616;2022-10-31T11:34:38;97055.06;;;17.11;100.00
57628;BME280;43451;49.060;10.616;2022-10-31T11:37:15;97068.13;;;17.24;100.00
57628;BME280;43451;49.060;10.616;2022-10-31T11:39:46;97056.72;;;17.25;100.00
57628;BME280;43451;49.060;10.616;2022-10-31T11:42:24;97050.44;;;17.25;100.00
57628;BME280;43451;49.060;10.616;2022-10-31T11:44:51;97043.06;;;17.22;100.00
57628;BME280;43451;49.060;10.616;2022-10-31T11:47:25;97052.16;;;17.18;100.00
57628;BME280;43451;49.060;10.616;2022-10-31T11:49:52;97042.72;;;17.20;100.00
57628;BME280;43451;49.060;10.616;2022-10-31T11:52:24;97036.91;;;17.34;100.00
57628;BME280;43451;49.060;10.616;2022-10-31T11:57:46;97031.94;;;17.45;98.75
57628;BME280;43451;49.060;10.616;2022-10-31T12:05:58;97020.50;;;17.30;99.26
57628;BME280;43451;49.060;10.616;2022-10-31T12:08:30;97022.13;;;17.28;100.00
57628;BME280;43451;49.060;10.616;2022-10-31T12:14:28;97019.06;;;17.42;100.00
57628;BME280;43451;49.060;10.616;2022-10-31T12:25:57;97007.38;;;17.54;100.00
57628;BME280;43451;49.060;10.616;2022-10-31T12:29:19;97001.38;;;17.43;100.00
57628;BME280;43451;49.060;10.616;2022-10-31T12:36:54;96986.34;;;17.31;100.00
57628;BME280;43451;49.060;10.616;2022-10-31T12:39:44;96969.81;;;17.35;100.00
57628;BME280;43451;49.060;10.616;2022-10-31T12:51:35;96958.47;;;17.33;100.00
57628;BME280;43451;49.060;10.616;2022-10-31T12:53:31;96954.84;;;17.52;100.00
57628;BME280;43451;49.060;10.616;2022-10-31T12:58:38;96954.56;;;17.79;100.00
57628;BME280;43451;49.060;10.616;2022-10-31T13:01:26;96961.66;;;17.93;100.00
57628;BME280;43451;49.060;10.616;2022-10-31T13:04:12;96962.91;;;18.05;100.00
57628;BME280;43451;49.060;10.616;2022-10-31T13:06:50;96950.97;;;18.24;100.00
57628;BME280;43451;49.060;10.616;2022-10-31T13:09:25;96951.53;;;18.32;100.00
57628;BME280;43451;49.060;10.616;2022-10-31T13:11:58;96931.41;;;18.35;100.00
57628;BME280;43451;49.060;10.616;2022-10-31T13:14:35;96934.69;;;18.30;100.00
57628;BME280;43451;49.060;10.616;2022-10-31T13:17:02;96931.81;;;18.21;100.00
57628;BME280;43451;49.060;10.616;2022-10-31T13:19:43;96930.13;;;18.10;100.00
57628;BME280;43451;49.060;10.616;2022-10-31T13:22:15;96937.56;;;17.97;100.00
57628;BME280;43451;49.060;10.616;2022-10-31T13:25:09;96932.78;;;17.85;100.00
57628;BME280;43451;49.060;10.616;2022-10-31T13:27:44;96937.13;;;17.70;100.00
57628;BME280;43451;49.060;10.616;2022-10-31T13:30:22;96923.31;;;17.57;100.00
57628;BME280;43451;49.060;10.616;2022-10-31T13:35:55;96922.25;;;17.38;100.00
57628;BME280;43451;49.060;10.616;2022-10-31T13:48:56;96905.97;;;16.98;100.00
57628;BME280;43451;49.060;10.616;2022-10-31T13:51:27;96896.25;;;16.93;100.00
57628;BME280;43451;49.060;10.616;2022-10-31T13:53:59;96908.53;;;16.89;100.00
57628;BME280;43451;49.060;10.616;2022-10-31T13:56:33;96899.28;;;16.83;100.00
57628;BME280;43451;49.060;10.616;2022-10-31T14:01:35;96894.00;;;16.72;100.00
57628;BME280;43451;49.060;10.616;2022-10-31T14:04:14;96894.50;;;16.67;100.00
57628;BME280;43451;49.060;10.616;2022-10-31T14:09:36;96893.56;;;16.57;100.00
57628;BME280;43451;49.060;10.616;2022-10-31T14:12:05;96884.91;;;16.59;100.00
57628;BME280;43451;49.060;10.616;2022-10-31T14:14:39;96886.44;;;16.60;100.00
57628;BME280;43451;49.060;10.616;2022-10-31T14:17:05;96869.72;;;16.54;100.00
57628;BME280;43451;49.060;10.616;2022-10-31T14:19:31;96873.00;;;16.65;100.00
57628;BME280;43451;49.060;10.616;2022-10-31T14:21:56;96871.28;;;16.71;100.00
57628;BME280;43451;49.060;10.616;2022-10-31T14:27:03;96867.94;;;16.64;100.00
57628;BME280;43451;49.060;10.616;2022-10-31T14:29:30;96868.50;;;16.55;100.00
57628;BME280;43451;49.060;10.616;2022-10-31T14:32:01;96859.25;;;16.49;100.00
57628;BME280;43451;49.060;10.616;2022-10-31T14:34:34;96860.53;;;16.44;100.00
57628;BME280;43451;49.060;10.616;2022-10-31T14:45:25;96858.34;;;16.19;100.00
57628;BME280;43451;49.060;10.616;2022-10-31T14:50:51;96851.81;;;16.13;100.00
57628;BME280;43451;49.060;10.616;2022-10-31T14:55:46;96834.34;;;16.07;100.00
57628;BME280;43451;49.060;10.616;2022-10-31T14:58:16;96841.44;;;16.05;100.00
57628;BME280;43451;49.060;10.616;2022-10-31T15:00:43;96833.72;;;15.99;100.00
57628;BME280;43451;49.060;10.616;2022-10-31T15:03:16;96836.59;;;16.12;100.00
57628;BME280;43451;49.060;10.616;2022-10-31T15:05:51;96833.03;;;15.95;100.00
57628;BME280;43451;49.060;10.616;2022-10-31T15:11:24;96835.66;;;16.19;100.00
57628;BME280;43451;49.060;10.616;2022-10-31T15:13:51;96829.56;;;16.11;100.00
57628;BME280;43451;49.060;10.616;2022-10-31T15:16:31;96832.81;;;16.06;100.00